Time;durP1;ratioP1;P1;durP2;ratioP2;P2;SDS_P1;SDS_P2;PMS_P1;PMS_P2;Temp;Humidity;BMP_temperature;BMP_pressure;BME280_temperature;BME280_humidity;BME280_pressure;Samples;Min_cycle;Max_cycle;Signal;HPM_P1;HPM_P2
2022/05/12 00:01:23;;;;;;;0.10;0.10;;;12.20;99.90;;;;;;5072043;28;20304;-90
2022/05/12 00:03:48;;;;;;;0.10;0.10;;;12.30;99.90;;;;;;5090718;28;20202;-91
2022/05/12 00:06:14;;;;;;;0.10;0.10;;;12.30;99.90;;;;;;5092572;28;20185;-94
2022/05/12 00:08:39;;;;;;;0.10;0.10;;;12.30;99.90;;;;;;5073893;28;20181;-89
2022/05/12 00:11:05;;;;;;;0.10;0.10;;;12.30;99.90;;;;;;5092463;28;20181;-94
2022/05/12 00:13:31;;;;;;;0.10;0.10;;;12.30;99.90;;;;;;5084804;28;20198;-95
2022/05/12 00:15:58;;;;;;;0.10;0.10;;;12.30;99.90;;;;;;5080814;28;20185;-92
2022/05/12 00:18:25;;;;;;;0.10;0.10;;;12.20;99.90;;;;;;5091418;28;20478;-92
2022/05/12 00:20:51;;;;;;;0.10;0.10;;;12.30;99.90;;;;;;5081877;28;20799;-90
2022/05/12 00:23:18;;;;;;;0.10;0.10;;;12.30;99.90;;;;;;5082173;28;20452;-90
2022/05/12 00:25:47;;;;;;;0.10;0.10;;;12.30;99.90;;;;;;5079632;28;20439;-90
2022/05/12 00:28:14;;;;;;;0.10;0.10;;;12.30;99.90;;;;;;5090995;28;20459;-92
2022/05/12 00:30:40;;;;;;;0.10;0.10;;;12.30;99.90;;;;;;5088328;28;20451;-93
2022/05/12 00:33:06;;;;;;;0.10;0.10;;;12.30;99.90;;;;;;5090475;28;20454;-90
2022/05/12 00:35:33;;;;;;;0.10;0.10;;;12.30;99.90;;;;;;5088897;28;20526;-92
2022/05/12 00:37:58;;;;;;;0.10;0.10;;;12.30;99.90;;;;;;5090463;28;20471;-92
2022/05/12 00:40:24;;;;;;;0.10;0.10;;;12.30;99.90;;;;;;5089196;28;20491;-91
2022/05/12 00:43:01;;;;;;;0.10;0.10;;;12.30;99.90;;;;;;5088862;28;20272;-90
2022/05/12 00:45:29;;;;;;;0.10;0.10;;;12.20;99.90;;;;;;5089372;28;20583;-91
2022/05/12 00:47:56;;;;;;;0.10;0.10;;;12.20;99.90;;;;;;5086585;28;20458;-89
2022/05/12 00:50:30;;;;;;;0.20;0.20;;;12.20;99.90;;;;;;5088503;28;20482;-87
2022/05/12 00:52:58;;;;;;;0.20;0.20;;;12.10;99.90;;;;;;5089439;28;21275;-87
2022/05/12 00:55:33;;;;;;;0.10;0.10;;;12.20;99.90;;;;;;5088016;28;20446;-87
2022/05/12 00:58:02;;;;;;;0.10;0.10;;;12.20;99.90;;;;;;5087896;28;20489;-90
2022/05/12 01:00:27;;;;;;;0.10;0.10;;;12.20;99.90;;;;;;5089990;28;20443;-88
2022/05/12 01:02:56;;;;;;;0.10;0.10;;;12.00;99.90;;;;;;5088022;28;20564;-88
2022/05/12 01:05:23;;;;;;;0.20;0.20;;;12.10;99.90;;;;;;5078041;28;20185;-88
2022/05/12 01:07:51;;;;;;;0.30;0.30;;;12.00;99.90;;;;;;5065298;28;20539;-88
2022/05/12 01:10:18;;;;;;;0.10;0.10;;;12.00;99.90;;;;;;5089107;28;20943;-87
2022/05/12 01:12:48;;;;;;;0.10;0.10;;;12.00;99.90;;;;;;5065656;28;20507;-87
2022/05/12 01:15:14;;;;;;;0.10;0.10;;;11.90;99.90;;;;;;5087450;28;20466;-86
2022/05/12 01:17:40;;;;;;;0.10;0.10;;;11.90;99.90;;;;;;5070004;28;20431;-87
2022/05/12 01:20:07;;;;;;;0.10;0.10;;;11.90;99.90;;;;;;5087561;28;20466;-87
2022/05/12 01:22:53;;;;;;;0.10;0.10;;;12.00;99.90;;;;;;5070833;28;20914;-86
2022/05/12 01:25:27;;;;;;;0.10;0.10;;;11.80;99.90;;;;;;5064561;28;20450;-87
2022/05/12 01:27:52;;;;;;;0.10;0.10;;;11.90;99.90;;;;;;5069019;28;20803;-87
2022/05/12 01:30:21;;;;;;;0.10;0.10;;;11.90;99.90;;;;;;5088585;28;20447;-87
2022/05/12 01:32:47;;;;;;;0.10;0.10;;;11.90;99.90;;;;;;5087927;28;20193;-86
2022/05/12 01:35:23;;;;;;;0.20;0.20;;;11.90;99.90;;;;;;5087601;28;21194;-86
2022/05/12 01:37:48;;;;;;;0.10;0.10;;;11.80;99.90;;;;;;5069235;28;20188;-87
2022/05/12 01:40:19;;;;;;;0.10;0.10;;;11.80;99.90;;;;;;5086306;28;20469;-87
2022/05/12 01:42:45;;;;;;;0.10;0.10;;;11.80;99.90;;;;;;5085385;28;20280;-87
2022/05/12 01:45:12;;;;;;;0.20;0.20;;;11.80;99.90;;;;;;5068425;28;20608;-88
2022/05/12 01:47:39;;;;;;;0.37;0.37;;;11.70;99.90;;;;;;5087967;28;20178;-89
2022/05/12 01:50:06;;;;;;;0.20;0.20;;;11.40;99.90;;;;;;5080737;28;20448;-88
2022/05/12 01:52:32;;;;;;;0.20;0.20;;;11.30;99.90;;;;;;5051418;28;20470;-89
2022/05/12 01:54:58;;;;;;;0.20;0.20;;;11.30;99.90;;;;;;5074047;28;20423;-88
2022/05/12 01:57:23;;;;;;;0.20;0.20;;;11.30;99.90;;;;;;5090744;28;20255;-87
2022/05/12 01:59:49;;;;;;;0.20;0.20;;;11.10;99.90;;;;;;5087774;28;20216;-88
2022/05/12 02:02:15;;;;;;;0.20;0.20;;;11.00;99.90;;;;;;5089583;28;20246;-88
2022/05/12 02:04:41;;;;;;;0.20;0.20;;;11.10;99.90;;;;;;5091702;28;20466;-87
2022/05/12 02:07:07;;;;;;;0.20;0.20;;;10.90;99.90;;;;;;5089504;28;20181;-86
2022/05/12 02:09:33;;;;;;;0.10;0.10;;;10.90;99.90;;;;;;5089533;28;20451;-87
2022/05/12 02:11:58;;;;;;;0.20;0.20;;;10.90;99.90;;;;;;5067901;28;20443;-87
2022/05/12 02:14:24;;;;;;;0.10;0.10;;;10.90;99.90;;;;;;5091372;28;20193;-87
2022/05/12 02:16:49;;;;;;;0.20;0.20;;;10.80;99.90;;;;;;5090778;28;20283;-85
2022/05/12 02:19:15;;;;;;;0.57;0.57;;;10.80;99.90;;;;;;5089634;28;20216;-87
2022/05/12 02:21:40;;;;;;;0.20;0.20;;;10.80;99.90;;;;;;5073964;28;20262;-87
2022/05/12 02:24:06;;;;;;;0.20;0.20;;;10.80;99.90;;;;;;5089427;28;20211;-88
2022/05/12 02:26:32;;;;;;;0.20;0.20;;;10.70;99.90;;;;;;5088938;28;20181;-88
2022/05/12 02:28:58;;;;;;;0.10;0.10;;;10.70;99.90;;;;;;5089890;28;20435;-88
2022/05/12 02:31:24;;;;;;;0.20;0.20;;;10.70;99.90;;;;;;5078233;28;20183;-88
2022/05/12 02:33:49;;;;;;;0.10;0.10;;;10.70;99.90;;;;;;5092138;28;20427;-88
2022/05/12 02:36:15;;;;;;;0.10;0.10;;;10.70;99.90;;;;;;5090657;28;20181;-87
2022/05/12 02:38:41;;;;;;;0.10;0.10;;;10.70;99.90;;;;;;5089822;28;20217;-86
2022/05/12 02:41:07;;;;;;;0.20;0.20;;;10.50;99.90;;;;;;5089823;28;20242;-85
2022/05/12 02:43:32;;;;;;;0.30;0.30;;;10.60;99.90;;;;;;5092005;28;20604;-88
2022/05/12 02:46:12;;;;;;;0.20;0.20;;;10.60;99.90;;;;;;5072639;28;20531;-88
2022/05/12 02:48:44;;;;;;;0.10;0.10;;;10.50;99.90;;;;;;5084285;28;20661;-88
2022/05/12 02:51:10;;;;;;;0.10;0.10;;;10.50;99.90;;;;;;5083021;28;20475;-86
2022/05/12 02:53:36;;;;;;;0.20;0.20;;;10.40;99.90;;;;;;5090767;28;20500;-86
2022/05/12 02:56:02;;;;;;;0.20;0.20;;;10.30;99.90;;;;;;5087993;28;20934;-86
2022/05/12 02:58:29;;;;;;;0.10;0.10;;;10.30;99.90;;;;;;5089140;28;20483;-87
2022/05/12 03:00:55;;;;;;;0.10;0.10;;;10.30;99.90;;;;;;5091277;28;20478;-86
2022/05/12 03:03:20;;;;;;;0.20;0.20;;;10.20;99.90;;;;;;5071779;28;20475;-87
2022/05/12 03:05:46;;;;;;;0.17;0.17;;;10.10;99.90;;;;;;5088057;28;20814;-86
2022/05/12 03:08:12;;;;;;;0.30;0.30;;;10.20;99.90;;;;;;5091027;28;20185;-87
2022/05/12 03:10:38;;;;;;;0.20;0.20;;;10.20;99.90;;;;;;5090310;28;20455;-86
2022/05/12 03:13:05;;;;;;;0.20;0.20;;;10.10;99.90;;;;;;5089627;28;20537;-85
2022/05/12 03:15:31;;;;;;;0.17;0.17;;;10.10;99.90;;;;;;5072171;28;20508;-87
2022/05/12 03:17:57;;;;;;;0.30;0.30;;;10.00;99.90;;;;;;5083026;28;20517;-87
2022/05/12 03:20:25;;;;;;;0.20;0.20;;;10.10;99.90;;;;;;5087946;28;20472;-87
2022/05/12 03:22:51;;;;;;;0.20;0.20;;;10.00;99.90;;;;;;5088254;28;20558;-87
2022/05/12 03:25:19;;;;;;;0.20;0.20;;;10.00;99.90;;;;;;5089607;28;20939;-87
2022/05/12 03:27:45;;;;;;;0.20;0.20;;;9.90;99.90;;;;;;5072097;28;20281;-86
2022/05/12 03:30:14;;;;;;;0.20;0.20;;;10.00;99.90;;;;;;5072236;28;20518;-85
2022/05/12 03:32:40;;;;;;;0.20;0.20;;;10.10;99.90;;;;;;5070817;28;20185;-85
2022/05/12 03:35:07;;;;;;;0.20;0.20;;;10.10;99.90;;;;;;5090088;28;20503;-88
2022/05/12 03:37:33;;;;;;;0.10;0.10;;;10.10;99.90;;;;;;5071174;28;20273;-87
2022/05/12 03:39:58;;;;;;;0.20;0.20;;;10.10;99.90;;;;;;5078863;28;20631;-87
2022/05/12 03:42:24;;;;;;;0.20;0.20;;;10.10;99.90;;;;;;5072137;28;21021;-85
2022/05/12 03:44:50;;;;;;;0.20;0.20;;;10.10;99.90;;;;;;5090356;28;20217;-86
2022/05/12 03:47:22;;;;;;;0.20;0.20;;;10.20;99.90;;;;;;5088304;28;20541;-85
2022/05/12 03:49:49;;;;;;;0.13;0.13;;;10.20;99.90;;;;;;5090434;28;20415;-87
2022/05/12 03:52:15;;;;;;;0.20;0.20;;;10.20;99.90;;;;;;5089762;28;20479;-86
2022/05/12 03:54:42;;;;;;;0.10;0.10;;;10.30;99.90;;;;;;5078541;28;20447;-86
2022/05/12 03:57:08;;;;;;;0.20;0.20;;;10.30;99.90;;;;;;5088386;28;20448;-85
2022/05/12 03:59:34;;;;;;;0.20;0.20;;;10.20;99.90;;;;;;5071646;28;20483;-86
2022/05/12 04:02:00;;;;;;;0.20;0.20;;;10.30;99.90;;;;;;5087875;28;20446;-87
2022/05/12 04:04:25;;;;;;;0.30;0.30;;;10.30;99.90;;;;;;5087251;28;20447;-85
2022/05/12 04:06:51;;;;;;;0.20;0.20;;;10.30;99.90;;;;;;5089433;28;20181;-87
2022/05/12 04:09:17;;;;;;;0.20;0.20;;;10.40;99.90;;;;;;5087144;28;20199;-88
2022/05/12 04:11:42;;;;;;;0.20;0.20;;;10.30;99.90;;;;;;5087393;28;20562;-88
2022/05/12 04:14:08;;;;;;;0.20;0.20;;;10.40;99.90;;;;;;5087125;28;20190;-85
2022/05/12 04:16:35;;;;;;;0.20;0.20;;;10.20;99.90;;;;;;5069408;28;20211;-87
2022/05/12 04:19:03;;;;;;;0.20;0.20;;;10.30;99.90;;;;;;5089302;28;20482;-85
2022/05/12 04:21:30;;;;;;;0.10;0.10;;;10.40;99.90;;;;;;5089486;28;20439;-88
2022/05/12 04:23:55;;;;;;;0.20;0.20;;;10.30;99.90;;;;;;5084357;28;21020;-88
2022/05/12 04:26:21;;;;;;;0.20;0.20;;;10.30;99.90;;;;;;5089929;28;20416;-87
2022/05/12 04:28:47;;;;;;;0.20;0.20;;;10.30;99.90;;;;;;5070127;28;20212;-87
2022/05/12 04:31:12;;;;;;;0.20;0.20;;;10.30;99.90;;;;;;5084722;28;20928;-86
2022/05/12 04:36:22;;;;;;;0.20;0.20;;;10.40;99.90;;;;;;5088548;28;20277;-86
2022/05/12 04:38:47;;;;;;;0.20;0.20;;;10.50;99.90;;;;;;5086455;28;20554;-87
2022/05/12 04:41:13;;;;;;;0.20;0.20;;;10.40;99.90;;;;;;5089816;28;20177;-84
2022/05/12 04:43:39;;;;;;;0.20;0.20;;;10.40;99.90;;;;;;5070828;28;20644;-86
2022/05/12 04:46:04;;;;;;;0.20;0.20;;;10.50;99.90;;;;;;5084743;28;20451;-85
2022/05/12 04:48:31;;;;;;;0.20;0.20;;;10.50;99.90;;;;;;5088601;28;20284;-85
2022/05/12 04:50:59;;;;;;;0.10;0.10;;;10.50;99.90;;;;;;5088315;28;20213;-86
2022/05/12 04:53:25;;;;;;;0.10;0.10;;;10.40;99.90;;;;;;5086814;28;20499;-86
2022/05/12 04:55:51;;;;;;;0.20;0.20;;;10.50;99.90;;;;;;5067450;28;20435;-85
2022/05/12 04:58:17;;;;;;;0.10;0.10;;;10.60;99.90;;;;;;5084954;28;20474;-87
2022/05/12 05:00:43;;;;;;;0.20;0.20;;;10.60;99.90;;;;;;5081082;28;20191;-84
2022/05/12 05:03:10;;;;;;;0.20;0.20;;;10.60;99.90;;;;;;5079854;28;20185;-87
2022/05/12 05:05:36;;;;;;;0.10;0.10;;;10.50;99.90;;;;;;5084727;28;20957;-86
2022/05/12 05:08:03;;;;;;;0.20;0.20;;;10.50;99.90;;;;;;5080207;28;20492;-86
2022/05/12 05:10:32;;;;;;;0.30;0.30;;;10.50;99.90;;;;;;5083242;28;20435;-84
2022/05/12 05:12:58;;;;;;;0.30;0.30;;;10.60;99.90;;;;;;5085678;28;20446;-86
2022/05/12 05:15:25;;;;;;;0.20;0.20;;;10.70;99.90;;;;;;5087583;28;20532;-88
2022/05/12 05:17:51;;;;;;;0.80;0.80;;;10.60;99.90;;;;;;5067288;28;20551;-87
2022/05/12 05:20:20;;;;;;;0.10;0.10;;;10.70;99.90;;;;;;5075389;28;20889;-88
2022/05/12 05:22:46;;;;;;;0.20;0.20;;;10.60;99.90;;;;;;5083056;28;20508;-86
2022/05/12 05:25:12;;;;;;;0.20;0.20;;;10.70;99.90;;;;;;5083548;28;20450;-87
2022/05/12 05:27:38;;;;;;;0.10;0.10;;;10.70;99.90;;;;;;5087592;28;20181;-86
2022/05/12 05:30:06;;;;;;;0.20;0.20;;;10.70;99.90;;;;;;5086955;28;20196;-87
2022/05/12 05:32:32;;;;;;;0.20;0.20;;;10.80;99.90;;;;;;5089895;28;20458;-85
2022/05/12 05:34:57;;;;;;;0.43;0.43;;;10.90;99.90;;;;;;5071344;28;20448;-88
2022/05/12 05:37:23;;;;;;;0.30;0.30;;;10.90;99.90;;;;;;5083535;28;20439;-88
2022/05/12 05:39:49;;;;;;;0.13;0.13;;;10.90;99.90;;;;;;5087817;28;20614;-86
2022/05/12 05:42:17;;;;;;;0.10;0.10;;;10.90;99.90;;;;;;5084905;28;20184;-86
2022/05/12 05:44:42;;;;;;;0.10;0.10;;;11.00;99.90;;;;;;5086628;28;20278;-86
2022/05/12 05:47:09;;;;;;;0.10;0.10;;;10.90;99.90;;;;;;5091708;28;20879;-86
2022/05/12 05:49:35;;;;;;;0.20;0.20;;;10.90;99.90;;;;;;5071964;28;20181;-86
2022/05/12 05:54:45;;;;;;;0.10;0.10;;;11.10;99.90;;;;;;5087604;28;20441;-86
2022/05/12 05:57:11;;;;;;;0.10;0.10;;;11.30;99.90;;;;;;5091456;28;20447;-85
2022/05/12 05:59:37;;;;;;;0.20;0.20;;;11.30;99.90;;;;;;5090061;28;20523;-85
2022/05/12 06:02:03;;;;;;;0.13;0.13;;;11.20;99.90;;;;;;5089403;28;20177;-85
2022/05/12 06:04:29;;;;;;;0.20;0.20;;;11.40;99.90;;;;;;5092038;28;20185;-86
2022/05/12 06:06:55;;;;;;;0.10;0.10;;;11.40;99.90;;;;;;5086966;28;20443;-86
2022/05/12 06:09:21;;;;;;;0.10;0.10;;;11.60;99.90;;;;;;5087039;28;20534;-86
2022/05/12 06:11:48;;;;;;;0.10;0.10;;;11.60;99.90;;;;;;5090233;28;20473;-85
2022/05/12 06:14:14;;;;;;;0.10;0.10;;;11.50;99.90;;;;;;5070544;28;20189;-87
2022/05/12 06:16:40;;;;;;;0.10;0.10;;;11.40;99.90;;;;;;5090563;28;20439;-79
2022/05/12 06:19:06;;;;;;;0.30;0.30;;;11.30;99.90;;;;;;5089688;28;20209;-83
2022/05/12 06:21:35;;;;;;;0.20;0.20;;;11.30;99.90;;;;;;5087035;28;20192;-81
2022/05/12 06:24:01;;;;;;;0.20;0.20;;;11.30;99.90;;;;;;5088737;28;20431;-82
2022/05/12 06:26:26;;;;;;;0.20;0.20;;;11.30;99.90;;;;;;5089091;28;20423;-84
2022/05/12 06:28:52;;;;;;;0.13;0.13;;;11.40;99.90;;;;;;5085659;28;20186;-83
2022/05/12 06:31:24;;;;;;;0.10;0.10;;;11.50;99.90;;;;;;5070360;28;20192;-83
2022/05/12 06:33:54;;;;;;;0.10;0.10;;;11.50;99.90;;;;;;5067980;28;20189;-81
2022/05/12 06:36:20;;;;;;;0.10;0.10;;;11.70;99.90;;;;;;5086058;28;20462;-80
2022/05/12 06:38:47;;;;;;;0.10;0.10;;;11.80;99.90;;;;;;5087000;28;20467;-81
2022/05/12 06:41:14;;;;;;;0.20;0.20;;;12.00;99.90;;;;;;5084909;28;20225;-81
2022/05/12 06:43:45;;;;;;;0.10;0.10;;;11.90;99.90;;;;;;5085105;28;20435;-78
2022/05/12 06:46:12;;;;;;;0.20;0.20;;;11.90;99.90;;;;;;5079849;28;20894;-79
2022/05/12 06:48:37;;;;;;;0.10;0.10;;;12.00;99.90;;;;;;5078311;28;20443;-78
2022/05/12 06:51:03;;;;;;;0.10;0.10;;;12.00;99.90;;;;;;5086418;28;20471;-78
2022/05/12 06:53:29;;;;;;;0.10;0.10;;;12.10;99.90;;;;;;5080884;28;20181;-79
2022/05/12 06:55:55;;;;;;;0.10;0.10;;;12.30;99.90;;;;;;5085561;28;20453;-79
2022/05/12 06:58:20;;;;;;;0.10;0.10;;;12.20;99.90;;;;;;5085530;28;20726;-79
2022/05/12 07:00:46;;;;;;;0.10;0.10;;;12.40;99.90;;;;;;5086931;28;20197;-79
2022/05/12 07:03:16;;;;;;;0.10;0.10;;;12.40;99.90;;;;;;5090669;28;20189;-78
2022/05/12 07:05:42;;;;;;;0.10;0.10;;;12.50;99.90;;;;;;5083797;28;20185;-79
2022/05/12 07:08:08;;;;;;;0.20;0.20;;;12.60;99.90;;;;;;5069008;28;20435;-79
2022/05/12 07:10:34;;;;;;;0.10;0.10;;;12.70;99.90;;;;;;5076716;28;20189;-81
2022/05/12 07:13:00;;;;;;;0.10;0.10;;;12.60;99.90;;;;;;5079534;28;20446;-79
2022/05/12 07:15:27;;;;;;;0.20;0.20;;;12.40;99.90;;;;;;5076943;28;20226;-83
2022/05/12 07:17:55;;;;;;;0.50;0.50;;;12.30;99.90;;;;;;5084543;28;20242;-77
2022/05/12 07:28:36;;;;;;;0.10;0.10;;;13.20;99.90;;;;;;5083913;28;20790;-81
2022/05/12 07:31:03;;;;;;;0.10;0.10;;;13.10;99.90;;;;;;5086525;28;20436;-79
2022/05/12 07:33:42;;;;;;;0.10;0.10;;;13.00;99.90;;;;;;5083615;28;20815;-79
2022/05/12 07:36:15;;;;;;;0.10;0.10;;;12.90;99.90;;;;;;5087996;28;20427;-82
2022/05/12 07:38:42;;;;;;;0.10;0.10;;;12.80;99.90;;;;;;5088337;28;20466;-77
2022/05/12 07:41:10;;;;;;;0.10;0.10;;;12.90;99.90;;;;;;5084691;28;20450;-78
2022/05/12 07:43:36;;;;;;;0.10;0.10;;;13.20;99.90;;;;;;5084141;28;20451;-77
2022/05/12 07:46:02;;;;;;;0.10;0.10;;;13.40;99.90;;;;;;5081440;28;20436;-81
2022/05/12 07:48:28;;;;;;;0.10;0.10;;;13.80;99.90;;;;;;5085581;28;20435;-75
2022/05/12 07:50:53;;;;;;;0.10;0.10;;;13.30;99.90;;;;;;5084077;28;20260;-79
2022/05/12 07:53:19;;;;;;;0.10;0.10;;;13.20;99.90;;;;;;5072225;28;20185;-78
2022/05/12 07:55:44;;;;;;;0.10;0.10;;;13.20;99.90;;;;;;5081750;28;20181;-79
2022/05/12 07:58:11;;;;;;;0.10;0.10;;;13.20;99.90;;;;;;5064575;28;21563;-78
2022/05/12 08:00:37;;;;;;;0.10;0.10;;;13.50;99.90;;;;;;5084998;28;20188;-80
2022/05/12 08:03:03;;;;;;;0.10;0.10;;;13.60;99.90;;;;;;5064004;28;20427;-78
2022/05/12 08:05:29;;;;;;;0.10;0.10;;;13.90;99.90;;;;;;5068232;28;20683;-79
2022/05/12 08:07:55;;;;;;;0.10;0.10;;;14.10;99.90;;;;;;5083440;28;20447;-80
2022/05/12 08:10:21;;;;;;;0.10;0.10;;;13.80;99.90;;;;;;5084932;28;20435;-80
2022/05/12 08:12:48;;;;;;;0.10;0.10;;;13.90;99.90;;;;;;5072896;28;20552;-80
2022/05/12 08:15:13;;;;;;;0.10;0.10;;;13.80;99.90;;;;;;5083866;28;20992;-88
2022/05/12 08:17:40;;;;;;;0.10;0.10;;;14.00;99.90;;;;;;5066096;28;20459;-90
2022/05/12 08:20:08;;;;;;;0.10;0.10;;;14.20;99.90;;;;;;5086874;28;20508;-83
2022/05/12 08:22:34;;;;;;;0.10;0.10;;;14.50;99.90;;;;;;5084449;28;20182;-82
2022/05/12 08:25:00;;;;;;;0.10;0.10;;;14.20;99.90;;;;;;5081806;28;21035;-78
2022/05/12 08:27:25;;;;;;;0.30;0.30;;;14.30;99.90;;;;;;5084179;28;20439;-79
2022/05/12 08:29:52;;;;;;;0.20;0.20;;;14.20;99.90;;;;;;5083056;28;20250;-83
2022/05/12 08:32:18;;;;;;;0.20;0.20;;;14.50;99.90;;;;;;5085188;28;20443;-83
2022/05/12 08:34:44;;;;;;;0.10;0.10;;;14.40;99.90;;;;;;5074115;28;20453;-80
2022/05/12 08:37:10;;;;;;;0.10;0.10;;;14.30;99.90;;;;;;5065360;28;20246;-81
2022/05/12 08:39:36;;;;;;;0.10;0.10;;;14.70;99.90;;;;;;5086303;28;20510;-81
2022/05/12 08:42:14;;;;;;;0.10;0.10;;;15.10;99.90;;;;;;5084660;28;20809;-82
2022/05/12 08:44:40;;;;;;;0.10;0.10;;;15.40;99.90;;;;;;5084432;28;20851;-79
2022/05/12 08:47:12;;;;;;;0.10;0.10;;;15.70;99.90;;;;;;5084331;28;20522;-81
2022/05/12 08:49:48;;;;;;;0.40;0.40;;;15.50;99.90;;;;;;5084063;28;20455;-81
2022/05/12 08:52:22;;;;;;;0.60;0.60;;;15.10;99.90;;;;;;5060008;28;20894;-80
2022/05/12 08:54:53;;;;;;;0.30;0.30;;;15.30;99.90;;;;;;5084665;28;20548;-80
2022/05/12 08:57:31;;;;;;;0.63;0.63;;;15.60;99.90;;;;;;5074716;28;20450;-81
2022/05/12 08:59:57;;;;;;;0.10;0.10;;;15.90;99.90;;;;;;5084644;28;20477;-81
2022/05/12 09:02:35;;;;;;;1.00;1.00;;;16.20;99.90;;;;;;5084509;28;20442;-81
2022/05/12 09:05:07;;;;;;;0.70;0.70;;;16.10;99.90;;;;;;5087186;28;20542;-82
2022/05/12 09:08:04;;;;;;;0.50;0.50;;;15.50;99.90;;;;;;5088919;28;20802;-82
2022/05/12 09:10:56;;;;;;;1.07;1.07;;;15.70;99.90;;;;;;5071082;28;20873;-81
2022/05/12 09:13:31;;;;;;;0.43;0.43;;;15.60;99.90;;;;;;5078116;28;20443;-80
2022/05/12 09:16:28;;;;;;;0.40;0.40;;;15.00;99.90;;;;;;5072365;28;20430;-80
2022/05/12 09:18:54;;;;;;;0.20;0.20;;;14.80;99.90;;;;;;5083238;28;20471;-82
2022/05/12 09:21:25;;;;;;;0.30;0.30;;;14.50;99.90;;;;;;5067992;28;21200;-79
2022/05/12 09:23:51;;;;;;;0.20;0.20;;;15.00;99.90;;;;;;5085420;28;20435;-79
2022/05/12 09:26:32;;;;;;;0.20;0.20;;;15.60;99.90;;;;;;5089692;28;20439;-80
2022/05/12 09:29:27;;;;;;;0.30;0.30;;;16.00;99.90;;;;;;5077323;28;20446;-80
2022/05/12 09:32:17;;;;;;;0.10;0.10;;;16.30;99.90;;;;;;5088110;28;20442;-81
2022/05/12 09:35:01;;;;;;;0.20;0.20;;;15.60;99.90;;;;;;5081681;28;20446;-81
2022/05/12 09:37:28;;;;;;;0.10;0.10;;;15.40;99.90;;;;;;5085008;28;20457;-80
2022/05/12 09:40:13;;;;;;;0.10;0.10;;;15.10;99.90;;;;;;5070750;28;20501;-80
2022/05/12 09:42:42;;;;;;;0.10;0.10;;;15.10;99.90;;;;;;5054965;28;21024;-80
2022/05/12 09:45:28;;;;;;;0.10;0.10;;;14.70;99.90;;;;;;5082873;28;20434;-79
2022/05/12 09:48:17;;;;;;;0.10;0.10;;;14.70;99.90;;;;;;5090171;28;20884;-78
2022/05/12 09:50:43;;;;;;;0.10;0.10;;;15.50;99.90;;;;;;5076022;28;20822;-79
2022/05/12 09:53:09;;;;;;;0.10;0.10;;;16.50;99.90;;;;;;5092347;28;20443;-79
2022/05/12 09:55:41;;;;;;;0.10;0.10;;;17.20;99.90;;;;;;5072573;28;20203;-79
2022/05/12 09:58:31;;;;;;;0.10;0.10;;;17.40;99.90;;;;;;5086606;28;20938;-81
2022/05/12 10:01:15;;;;;;;0.10;0.10;;;16.70;99.90;;;;;;5090078;28;20453;-80
2022/05/12 10:09:27;;;;;;;0.30;0.30;;;17.50;99.90;;;;;;5089817;28;20454;-79
2022/05/12 10:12:10;;;;;;;0.40;0.40;;;17.30;99.90;;;;;;5092838;28;20431;-79
2022/05/12 10:14:46;;;;;;;0.40;0.40;;;17.00;99.90;;;;;;5088231;28;20469;-78
2022/05/12 10:17:24;;;;;;;0.20;0.20;;;17.70;99.90;;;;;;5089200;28;20475;-80
2022/05/12 10:19:50;;;;;;;0.10;0.10;;;18.00;99.90;;;;;;5088722;28;20494;-78
2022/05/12 10:22:32;;;;;;;0.10;0.10;;;17.30;99.90;;;;;;5084629;28;20869;-78
2022/05/12 10:25:14;;;;;;;0.27;0.27;;;16.70;99.90;;;;;;5068173;28;20796;-78
2022/05/12 10:27:43;;;;;;;0.10;0.10;;;16.10;99.90;;;;;;5086642;28;20555;-81
2022/05/12 10:30:17;;;;;;;0.10;0.10;;;15.80;99.90;;;;;;5087762;28;20506;-80
2022/05/12 10:32:52;;;;;;;0.30;0.30;;;15.70;99.90;;;;;;5074604;28;20529;-78
2022/05/12 10:35:23;;;;;;;0.40;0.40;;;15.40;99.90;;;;;;5082890;28;20442;-78
2022/05/12 10:37:57;;;;;;;0.10;0.10;;;15.60;99.90;;;;;;5087562;28;20981;-79
2022/05/12 10:40:46;;;;;;;0.17;0.17;;;15.60;99.90;;;;;;5087724;28;20469;-79
2022/05/12 10:43:49;;;;;;;0.10;0.10;;;15.60;99.90;;;;;;5069879;28;20439;-79
2022/05/12 10:46:38;;;;;;;0.10;0.10;;;15.50;99.90;;;;;;5083199;28;20443;-79
2022/05/12 10:49:37;;;;;;;0.20;0.20;;;16.70;99.90;;;;;;5081456;28;20618;-78
2022/05/12 10:52:27;;;;;;;0.20;0.20;;;16.80;99.90;;;;;;5066693;28;21097;-76
2022/05/12 10:55:34;;;;;;;0.10;0.10;;;17.10;99.90;;;;;;5080563;28;20497;-76
2022/05/12 10:58:22;;;;;;;0.10;0.10;;;17.70;99.90;;;;;;5090200;28;20447;-78
2022/05/12 11:01:09;;;;;;;0.23;0.23;;;18.60;99.90;;;;;;5068495;28;21883;-80
2022/05/12 11:03:48;;;;;;;0.10;0.10;;;18.40;99.90;;;;;;5087813;28;20435;-80
2022/05/12 11:06:17;;;;;;;0.20;0.20;;;18.50;99.90;;;;;;5088542;28;20446;-79
2022/05/12 11:08:50;;;;;;;0.10;0.10;;;19.00;99.90;;;;;;5089002;28;20478;-79
2022/05/12 11:11:27;;;;;;;0.10;0.10;;;19.10;99.90;;;;;;5090707;28;20470;-78
2022/05/12 11:14:07;;;;;;;0.10;0.10;;;18.80;99.90;;;;;;5081328;28;20453;-79
2022/05/12 11:16:59;;;;;;;0.00;0.00;;;18.20;99.90;;;;;;5063895;28;20514;-78
2022/05/12 11:19:25;;;;;;;0.10;0.10;;;19.20;99.90;;;;;;5087648;28;20482;-78
2022/05/12 11:22:22;;;;;;;0.10;0.00;;;19.60;99.90;;;;;;5089542;28;20443;-79
2022/05/12 11:25:00;;;;;;;0.00;0.00;;;19.50;99.90;;;;;;5088140;28;20439;-79
2022/05/12 11:27:44;;;;;;;0.10;0.00;;;19.40;99.90;;;;;;5091040;28;21245;-79
2022/05/12 11:30:20;;;;;;;0.10;0.10;;;18.30;99.90;;;;;;5085514;28;20909;-79
2022/05/12 11:33:03;;;;;;;0.20;0.20;;;17.90;99.90;;;;;;5089754;28;20883;-78
2022/05/12 11:35:33;;;;;;;0.20;0.20;;;18.90;99.90;;;;;;5090530;28;20443;-77
2022/05/12 11:38:02;;;;;;;0.10;0.10;;;19.00;99.90;;;;;;5086836;28;20438;-78
2022/05/12 11:40:48;;;;;;;0.10;0.10;;;20.50;99.90;;;;;;5090262;28;20868;-80
2022/05/12 11:46:41;;;;;;;0.10;0.10;;;19.80;99.90;;;;;;5083782;28;20491;-79
2022/05/12 11:49:15;;;;;;;0.10;0.10;;;20.20;99.90;;;;;;5060589;28;20504;-80
2022/05/12 11:51:53;;;;;;;0.00;0.00;;;20.50;99.90;;;;;;5088666;28;21012;-78
2022/05/12 11:54:38;;;;;;;0.10;0.10;;;19.90;99.90;;;;;;5084673;28;20445;-82
2022/05/12 11:57:19;;;;;;;0.10;0.10;;;20.60;99.90;;;;;;5078269;28;20454;-81
2022/05/12 11:59:49;;;;;;;0.10;0.10;;;20.60;99.90;;;;;;5085688;28;20489;-81
2022/05/12 12:02:29;;;;;;;0.10;0.10;;;20.80;99.90;;;;;;5081296;28;20931;-82
2022/05/12 12:05:03;;;;;;;0.10;0.10;;;21.40;99.90;;;;;;5074683;28;20444;-80
2022/05/12 12:07:32;;;;;;;0.10;0.10;;;21.80;99.90;;;;;;5087001;28;20450;-82
2022/05/12 12:10:24;;;;;;;0.10;0.10;;;19.90;99.90;;;;;;5087679;28;20439;-81
2022/05/12 12:12:51;;;;;;;0.10;0.10;;;18.80;99.90;;;;;;5084898;28;20529;-79
2022/05/12 12:15:35;;;;;;;0.10;0.07;;;17.70;99.90;;;;;;5089309;28;20431;-78
2022/05/12 12:18:19;;;;;;;0.10;0.10;;;19.30;99.90;;;;;;5088003;28;20441;-81
2022/05/12 12:20:48;;;;;;;0.10;0.10;;;20.10;99.90;;;;;;5080085;28;20478;-82
2022/05/12 12:23:23;;;;;;;0.00;0.00;;;18.50;99.90;;;;;;5083087;28;20435;-80
2022/05/12 12:26:12;;;;;;;0.00;0.00;;;17.70;99.90;;;;;;5083563;28;20824;-80
2022/05/12 12:28:56;;;;;;;0.10;0.10;;;17.40;99.90;;;;;;5086600;28;20431;-80
2022/05/12 12:31:30;;;;;;;0.10;0.10;;;17.00;99.90;;;;;;5084843;28;20503;-79
2022/05/12 12:34:13;;;;;;;0.00;0.00;;;16.60;99.90;;;;;;5088092;28;20451;-80
2022/05/12 12:36:58;;;;;;;0.00;0.00;;;17.50;99.90;;;;;;5087261;28;20439;-80
2022/05/12 12:39:37;;;;;;;0.07;0.00;;;19.50;99.90;;;;;;5087416;28;20540;-80
2022/05/12 12:42:15;;;;;;;0.00;0.00;;;20.60;99.90;;;;;;5085709;28;20431;-80
2022/05/12 12:44:52;;;;;;;0.10;0.10;;;21.20;99.90;;;;;;5086564;28;20443;-81
2022/05/12 12:47:46;;;;;;;0.10;0.10;;;21.00;99.90;;;;;;5081104;28;20442;-78
2022/05/12 12:50:46;;;;;;;0.00;0.00;;;19.80;99.90;;;;;;5085106;28;20451;-78
2022/05/12 12:56:32;;;;;;;0.10;0.00;;;20.60;99.90;;;;;;5088289;28;20473;-81
2022/05/12 12:59:05;;;;;;;0.00;0.00;;;20.20;99.90;;;;;;5086069;28;20469;-80
2022/05/12 13:01:52;;;;;;;0.07;0.00;;;20.20;99.90;;;;;;5071146;28;20879;-82
2022/05/12 13:04:24;;;;;;;0.07;0.00;;;20.60;99.90;;;;;;5086144;28;20500;-81
2022/05/12 13:07:02;;;;;;;0.10;0.00;;;20.80;99.90;;;;;;5088358;28;21787;-81
2022/05/12 13:09:34;;;;;;;0.10;0.00;;;20.70;99.90;;;;;;5088929;28;20427;-83
2022/05/12 13:12:21;;;;;;;0.10;0.00;;;20.40;99.90;;;;;;5071870;28;20420;-81
2022/05/12 13:14:49;;;;;;;0.10;0.00;;;20.30;99.90;;;;;;5067972;28;20431;-81
2022/05/12 13:17:26;;;;;;;0.00;0.00;;;19.90;99.90;;;;;;5071716;28;20855;-81
2022/05/12 13:19:55;;;;;;;0.00;0.00;;;20.10;99.90;;;;;;5070284;28;20482;-80
2022/05/12 13:22:48;;;;;;;0.00;0.00;;;20.00;99.90;;;;;;5090037;28;20420;-81
2022/05/12 13:25:20;;;;;;;0.00;0.00;;;19.60;99.90;;;;;;5070725;28;20584;-81
2022/05/12 13:27:46;;;;;;;0.00;0.00;;;20.00;99.90;;;;;;5088746;28;20469;-82
2022/05/12 13:30:16;;;;;;;0.00;0.00;;;20.40;99.90;;;;;;5068808;28;20436;-82
2022/05/12 13:33:02;;;;;;;0.00;0.00;;;19.80;99.90;;;;;;5087881;28;20576;-81